sensor_id;sensor_type;location;lat;lon;timestamp;P1;durP1;ratioP1;P2;durP2;ratioP2
30892;SDS011;17595;50.884;4.346;2023-03-01T00:00:39;10.13;;;7.82;;
30892;SDS011;17595;50.884;4.346;2023-03-01T00:03:05;9.50;;;7.50;;
30892;SDS011;17595;50.884;4.346;2023-03-01T00:05:31;10.45;;;7.60;;
30892;SDS011;17595;50.884;4.346;2023-03-01T00:07:57;9.13;;;7.40;;
30892;SDS011;17595;50.884;4.346;2023-03-01T00:10:22;11.68;;;7.32;;
30892;SDS011;17595;50.884;4.346;2023-03-01T00:12:48;10.48;;;7.32;;
30892;SDS011;17595;50.884;4.346;2023-03-01T00:15:14;11.07;;;7.72;;
30892;SDS011;17595;50.884;4.346;2023-03-01T00:17:39;9.98;;;7.97;;
30892;SDS011;17595;50.884;4.346;2023-03-01T00:20:05;10.90;;;7.93;;
30892;SDS011;17595;50.884;4.346;2023-03-01T00:22:35;15.90;;;8.70;;
30892;SDS011;17595;50.884;4.346;2023-03-01T00:25:01;10.13;;;7.72;;
30892;SDS011;17595;50.884;4.346;2023-03-01T00:27:27;13.50;;;7.97;;
30892;SDS011;17595;50.884;4.346;2023-03-01T00:29:53;9.55;;;7.95;;
30892;SDS011;17595;50.884;4.346;2023-03-01T00:32:18;11.52;;;7.60;;
30892;SDS011;17595;50.884;4.346;2023-03-01T00:34:44;8.85;;;7.50;;
30892;SDS011;17595;50.884;4.346;2023-03-01T00:37:20;11.65;;;8.20;;
30892;SDS011;17595;50.884;4.346;2023-03-01T00:39:46;10.85;;;8.07;;
30892;SDS011;17595;50.884;4.346;2023-03-01T00:42:12;11.70;;;8.20;;
30892;SDS011;17595;50.884;4.346;2023-03-01T00:44:38;9.85;;;7.82;;
30892;SDS011;17595;50.884;4.346;2023-03-01T00:47:04;12.98;;;8.40;;
30892;SDS011;17595;50.884;4.346;2023-03-01T00:49:29;12.93;;;8.18;;
30892;SDS011;17595;50.884;4.346;2023-03-01T00:51:55;12.65;;;8.77;;
30892;SDS011;17595;50.884;4.346;2023-03-01T00:54:21;10.32;;;8.07;;
30892;SDS011;17595;50.884;4.346;2023-03-01T00:56:46;11.52;;;7.68;;
30892;SDS011;17595;50.884;4.346;2023-03-01T00:59:12;14.05;;;8.02;;
30892;SDS011;17595;50.884;4.346;2023-03-01T01:01:38;10.05;;;7.85;;
30892;SDS011;17595;50.884;4.346;2023-03-01T01:04:05;10.77;;;8.18;;
30892;SDS011;17595;50.884;4.346;2023-03-01T01:06:34;9.18;;;8.10;;
30892;SDS011;17595;50.884;4.346;2023-03-01T01:09:05;11.68;;;7.95;;
30892;SDS011;17595;50.884;4.346;2023-03-01T01:11:31;11.40;;;8.27;;
30892;SDS011;17595;50.884;4.346;2023-03-01T01:13:59;16.83;;;8.90;;
30892;SDS011;17595;50.884;4.346;2023-03-01T01:16:26;11.50;;;8.00;;
30892;SDS011;17595;50.884;4.346;2023-03-01T01:18:53;11.23;;;8.32;;
30892;SDS011;17595;50.884;4.346;2023-03-01T01:21:19;12.30;;;7.82;;
30892;SDS011;17595;50.884;4.346;2023-03-01T01:23:48;12.73;;;8.55;;
30892;SDS011;17595;50.884;4.346;2023-03-01T01:26:22;10.68;;;7.15;;
30892;SDS011;17595;50.884;4.346;2023-03-01T01:28:49;13.23;;;8.15;;
30892;SDS011;17595;50.884;4.346;2023-03-01T01:31:16;11.07;;;8.25;;
30892;SDS011;17595;50.884;4.346;2023-03-01T01:33:42;11.25;;;8.07;;
30892;SDS011;17595;50.884;4.346;2023-03-01T01:36:08;12.80;;;7.65;;
30892;SDS011;17595;50.884;4.346;2023-03-01T01:38:34;12.18;;;8.27;;
30892;SDS011;17595;50.884;4.346;2023-03-01T01:41:02;11.07;;;8.48;;
30892;SDS011;17595;50.884;4.346;2023-03-01T01:43:29;10.52;;;7.82;;
30892;SDS011;17595;50.884;4.346;2023-03-01T01:46:01;11.25;;;8.30;;
30892;SDS011;17595;50.884;4.346;2023-03-01T01:48:48;9.50;;;7.65;;
30892;SDS011;17595;50.884;4.346;2023-03-01T01:51:22;10.32;;;7.38;;
30892;SDS011;17595;50.884;4.346;2023-03-01T01:53:57;9.43;;;7.57;;
30892;SDS011;17595;50.884;4.346;2023-03-01T01:56:25;10.18;;;7.63;;
30892;SDS011;17595;50.884;4.346;2023-03-01T01:58:52;8.63;;;7.53;;
30892;SDS011;17595;50.884;4.346;2023-03-01T02:01:19;13.05;;;8.57;;
30892;SDS011;17595;50.884;4.346;2023-03-01T02:03:45;10.55;;;7.90;;
30892;SDS011;17595;50.884;4.346;2023-03-01T02:06:15;11.15;;;7.38;;
30892;SDS011;17595;50.884;4.346;2023-03-01T02:08:46;9.52;;;7.85;;
30892;SDS011;17595;50.884;4.346;2023-03-01T02:11:14;10.45;;;8.20;;
30892;SDS011;17595;50.884;4.346;2023-03-01T02:13:40;10.63;;;7.82;;
30892;SDS011;17595;50.884;4.346;2023-03-01T02:16:11;9.65;;;7.70;;
30892;SDS011;17595;50.884;4.346;2023-03-01T02:18:38;11.20;;;7.60;;
30892;SDS011;17595;50.884;4.346;2023-03-01T02:24:01;10.15;;;7.65;;
30892;SDS011;17595;50.884;4.346;2023-03-01T02:26:38;11.68;;;8.55;;
30892;SDS011;17595;50.884;4.346;2023-03-01T02:29:10;11.13;;;7.65;;
30892;SDS011;17595;50.884;4.346;2023-03-01T02:31:35;11.88;;;8.15;;
30892;SDS011;17595;50.884;4.346;2023-03-01T02:34:08;11.68;;;8.10;;
30892;SDS011;17595;50.884;4.346;2023-03-01T02:36:44;9.90;;;7.18;;
30892;SDS011;17595;50.884;4.346;2023-03-01T02:39:34;9.55;;;7.93;;
30892;SDS011;17595;50.884;4.346;2023-03-01T02:42:07;11.88;;;8.10;;
30892;SDS011;17595;50.884;4.346;2023-03-01T02:44:37;13.32;;;8.23;;
30892;SDS011;17595;50.884;4.346;2023-03-01T02:47:03;12.07;;;7.55;;
30892;SDS011;17595;50.884;4.346;2023-03-01T02:49:33;10.65;;;7.72;;
30892;SDS011;17595;50.884;4.346;2023-03-01T02:52:04;11.40;;;8.15;;
30892;SDS011;17595;50.884;4.346;2023-03-01T02:57:40;9.70;;;7.63;;
30892;SDS011;17595;50.884;4.346;2023-03-01T03:00:13;11.55;;;8.27;;
30892;SDS011;17595;50.884;4.346;2023-03-01T03:03:00;11.25;;;8.02;;
30892;SDS011;17595;50.884;4.346;2023-03-01T03:05:27;11.63;;;7.88;;
30892;SDS011;17595;50.884;4.346;2023-03-01T03:10:22;10.48;;;8.07;;
30892;SDS011;17595;50.884;4.346;2023-03-01T03:12:51;10.63;;;8.10;;
30892;SDS011;17595;50.884;4.346;2023-03-01T03:15:18;13.43;;;8.68;;
30892;SDS011;17595;50.884;4.346;2023-03-01T03:17:45;11.38;;;7.75;;
30892;SDS011;17595;50.884;4.346;2023-03-01T03:20:13;9.68;;;7.70;;
30892;SDS011;17595;50.884;4.346;2023-03-01T03:22:44;10.32;;;7.80;;
30892;SDS011;17595;50.884;4.346;2023-03-01T03:25:11;10.55;;;8.20;;
30892;SDS011;17595;50.884;4.346;2023-03-01T03:27:37;13.70;;;8.07;;
30892;SDS011;17595;50.884;4.346;2023-03-01T03:30:04;10.82;;;8.13;;
30892;SDS011;17595;50.884;4.346;2023-03-01T03:32:35;12.50;;;8.32;;
30892;SDS011;17595;50.884;4.346;2023-03-01T03:35:01;12.55;;;8.98;;
30892;SDS011;17595;50.884;4.346;2023-03-01T03:37:34;13.07;;;8.63;;
30892;SDS011;17595;50.884;4.346;2023-03-01T03:40:22;15.13;;;9.25;;
30892;SDS011;17595;50.884;4.346;2023-03-01T03:42:48;11.10;;;8.10;;
30892;SDS011;17595;50.884;4.346;2023-03-01T03:45:14;11.35;;;8.45;;
30892;SDS011;17595;50.884;4.346;2023-03-01T03:47:41;12.82;;;8.70;;
30892;SDS011;17595;50.884;4.346;2023-03-01T03:50:08;11.15;;;8.45;;
30892;SDS011;17595;50.884;4.346;2023-03-01T03:52:35;15.52;;;7.90;;
30892;SDS011;17595;50.884;4.346;2023-03-01T03:55:00;10.80;;;8.00;;
30892;SDS011;17595;50.884;4.346;2023-03-01T03:57:26;11.98;;;8.73;;
30892;SDS011;17595;50.884;4.346;2023-03-01T03:59:52;11.57;;;8.48;;
30892;SDS011;17595;50.884;4.346;2023-03-01T04:02:17;14.05;;;8.63;;
30892;SDS011;17595;50.884;4.346;2023-03-01T04:04:47;11.73;;;8.57;;
30892;SDS011;17595;50.884;4.346;2023-03-01T04:07:16;9.57;;;7.80;;
30892;SDS011;17595;50.884;4.346;2023-03-01T04:09:43;12.00;;;8.70;;
30892;SDS011;17595;50.884;4.346;2023-03-01T04:12:09;11.95;;;9.02;;
30892;SDS011;17595;50.884;4.346;2023-03-01T04:14:35;11.45;;;8.27;;
30892;SDS011;17595;50.884;4.346;2023-03-01T04:17:00;10.90;;;8.38;;
30892;SDS011;17595;50.884;4.346;2023-03-01T04:19:26;10.50;;;8.38;;
30892;SDS011;17595;50.884;4.346;2023-03-01T04:21:52;11.98;;;8.95;;
30892;SDS011;17595;50.884;4.346;2023-03-01T04:24:18;12.02;;;8.27;;
30892;SDS011;17595;50.884;4.346;2023-03-01T04:26:44;10.27;;;8.23;;
30892;SDS011;17595;50.884;4.346;2023-03-01T04:29:09;11.68;;;8.43;;
30892;SDS011;17595;50.884;4.346;2023-03-01T04:31:35;11.27;;;8.43;;
30892;SDS011;17595;50.884;4.346;2023-03-01T04:34:01;12.38;;;8.05;;
30892;SDS011;17595;50.884;4.346;2023-03-01T04:36:28;14.07;;;8.90;;
30892;SDS011;17595;50.884;4.346;2023-03-01T04:38:54;11.25;;;8.25;;
30892;SDS011;17595;50.884;4.346;2023-03-01T04:41:21;11.90;;;8.30;;
30892;SDS011;17595;50.884;4.346;2023-03-01T04:43:49;10.07;;;7.95;;
30892;SDS011;17595;50.884;4.346;2023-03-01T04:46:16;9.65;;;8.20;;
30892;SDS011;17595;50.884;4.346;2023-03-01T04:48:44;9.57;;;8.13;;
30892;SDS011;17595;50.884;4.346;2023-03-01T04:51:10;11.00;;;8.13;;
30892;SDS011;17595;50.884;4.346;2023-03-01T04:53:40;9.90;;;7.90;;
30892;SDS011;17595;50.884;4.346;2023-03-01T04:56:05;11.20;;;8.27;;
30892;SDS011;17595;50.884;4.346;2023-03-01T04:58:31;11.70;;;8.40;;
30892;SDS011;17595;50.884;4.346;2023-03-01T05:00:57;10.50;;;7.55;;
30892;SDS011;17595;50.884;4.346;2023-03-01T05:03:23;12.48;;;8.05;;
30892;SDS011;17595;50.884;4.346;2023-03-01T05:05:49;14.18;;;7.88;;
30892;SDS011;17595;50.884;4.346;2023-03-01T05:08:16;15.20;;;8.18;;
30892;SDS011;17595;50.884;4.346;2023-03-01T05:10:49;9.93;;;7.80;;
30892;SDS011;17595;50.884;4.346;2023-03-01T05:13:16;12.07;;;7.82;;
30892;SDS011;17595;50.884;4.346;2023-03-01T05:15:58;10.20;;;8.00;;
30892;SDS011;17595;50.884;4.346;2023-03-01T05:18:26;13.07;;;8.05;;
30892;SDS011;17595;50.884;4.346;2023-03-01T05:20:53;9.52;;;7.72;;
30892;SDS011;17595;50.884;4.346;2023-03-01T05:23:21;10.52;;;7.90;;
30892;SDS011;17595;50.884;4.346;2023-03-01T05:25:47;11.65;;;7.75;;
30892;SDS011;17595;50.884;4.346;2023-03-01T05:28:14;10.90;;;8.07;;
30892;SDS011;17595;50.884;4.346;2023-03-01T05:30:40;12.90;;;8.18;;
30892;SDS011;17595;50.884;4.346;2023-03-01T05:33:06;15.68;;;8.30;;
30892;SDS011;17595;50.884;4.346;2023-03-01T05:35:38;11.20;;;7.55;;
30892;SDS011;17595;50.884;4.346;2023-03-01T05:38:04;14.30;;;8.45;;
30892;SDS011;17595;50.884;4.346;2023-03-01T05:40:32;11.88;;;8.52;;
30892;SDS011;17595;50.884;4.346;2023-03-01T05:42:59;9.13;;;7.22;;
30892;SDS011;17595;50.884;4.346;2023-03-01T05:45:25;11.10;;;7.85;;
30892;SDS011;17595;50.884;4.346;2023-03-01T05:47:51;13.30;;;8.77;;
30892;SDS011;17595;50.884;4.346;2023-03-01T05:50:20;12.55;;;8.23;;
30892;SDS011;17595;50.884;4.346;2023-03-01T05:52:51;12.40;;;8.10;;
30892;SDS011;17595;50.884;4.346;2023-03-01T05:55:22;12.48;;;7.72;;
30892;SDS011;17595;50.884;4.346;2023-03-01T05:57:48;14.82;;;8.10;;
30892;SDS011;17595;50.884;4.346;2023-03-01T06:00:15;13.00;;;7.78;;
30892;SDS011;17595;50.884;4.346;2023-03-01T06:02:42;12.90;;;8.15;;
30892;SDS011;17595;50.884;4.346;2023-03-01T06:05:08;10.85;;;8.02;;
30892;SDS011;17595;50.884;4.346;2023-03-01T06:07:35;14.82;;;8.00;;
30892;SDS011;17595;50.884;4.346;2023-03-01T06:10:02;10.82;;;8.60;;
30892;SDS011;17595;50.884;4.346;2023-03-01T06:12:32;10.52;;;7.88;;
30892;SDS011;17595;50.884;4.346;2023-03-01T06:14:59;12.40;;;7.22;;
30892;SDS011;17595;50.884;4.346;2023-03-01T06:17:25;12.43;;;8.05;;
30892;SDS011;17595;50.884;4.346;2023-03-01T06:19:53;9.43;;;7.80;;
30892;SDS011;17595;50.884;4.346;2023-03-01T06:22:19;13.65;;;8.00;;
30892;SDS011;17595;50.884;4.346;2023-03-01T06:24:44;15.85;;;8.20;;
30892;SDS011;17595;50.884;4.346;2023-03-01T06:27:10;11.00;;;7.70;;
30892;SDS011;17595;50.884;4.346;2023-03-01T06:29:35;11.95;;;7.95;;
30892;SDS011;17595;50.884;4.346;2023-03-01T06:32:02;13.10;;;8.88;;
30892;SDS011;17595;50.884;4.346;2023-03-01T06:34:28;14.07;;;8.23;;
30892;SDS011;17595;50.884;4.346;2023-03-01T06:36:54;11.38;;;8.02;;
30892;SDS011;17595;50.884;4.346;2023-03-01T06:39:19;14.90;;;8.55;;
30892;SDS011;17595;50.884;4.346;2023-03-01T06:41:45;11.02;;;8.18;;
30892;SDS011;17595;50.884;4.346;2023-03-01T06:44:11;13.57;;;8.05;;
30892;SDS011;17595;50.884;4.346;2023-03-01T06:46:36;15.50;;;8.05;;
30892;SDS011;17595;50.884;4.346;2023-03-01T06:49:03;13.43;;;8.23;;
30892;SDS011;17595;50.884;4.346;2023-03-01T06:53:58;19.98;;;7.95;;
30892;SDS011;17595;50.884;4.346;2023-03-01T06:56:23;15.75;;;8.15;;
30892;SDS011;17595;50.884;4.346;2023-03-01T06:58:49;15.77;;;8.80;;
30892;SDS011;17595;50.884;4.346;2023-03-01T07:01:15;13.05;;;7.68;;
30892;SDS011;17595;50.884;4.346;2023-03-01T07:03:40;12.90;;;8.38;;
30892;SDS011;17595;50.884;4.346;2023-03-01T07:06:09;13.25;;;8.27;;
30892;SDS011;17595;50.884;4.346;2023-03-01T07:08:34;11.23;;;8.07;;
30892;SDS011;17595;50.884;4.346;2023-03-01T07:11:00;11.40;;;7.80;;
30892;SDS011;17595;50.884;4.346;2023-03-01T07:13:27;10.65;;;7.72;;
30892;SDS011;17595;50.884;4.346;2023-03-01T07:15:53;12.60;;;8.05;;
30892;SDS011;17595;50.884;4.346;2023-03-01T07:18:18;13.90;;;7.72;;
30892;SDS011;17595;50.884;4.346;2023-03-01T07:20:44;13.10;;;8.05;;
30892;SDS011;17595;50.884;4.346;2023-03-01T07:23:10;11.75;;;8.48;;
30892;SDS011;17595;50.884;4.346;2023-03-01T07:25:35;10.00;;;7.68;;
30892;SDS011;17595;50.884;4.346;2023-03-01T07:28:01;14.15;;;8.73;;
30892;SDS011;17595;50.884;4.346;2023-03-01T07:30:27;13.52;;;8.75;;
30892;SDS011;17595;50.884;4.346;2023-03-01T07:32:53;16.00;;;8.18;;
30892;SDS011;17595;50.884;4.346;2023-03-01T07:35:20;19.08;;;8.60;;
30892;SDS011;17595;50.884;4.346;2023-03-01T07:37:46;12.38;;;8.63;;
30892;SDS011;17595;50.884;4.346;2023-03-01T07:40:12;15.00;;;9.32;;
30892;SDS011;17595;50.884;4.346;2023-03-01T07:42:37;14.00;;;8.32;;
30892;SDS011;17595;50.884;4.346;2023-03-01T07:45:03;16.50;;;9.30;;
30892;SDS011;17595;50.884;4.346;2023-03-01T07:47:30;14.25;;;8.43;;
30892;SDS011;17595;50.884;4.346;2023-03-01T07:49:56;19.70;;;9.18;;
30892;SDS011;17595;50.884;4.346;2023-03-01T07:52:22;13.70;;;8.40;;
30892;SDS011;17595;50.884;4.346;2023-03-01T07:54:47;14.65;;;9.18;;
30892;SDS011;17595;50.884;4.346;2023-03-01T07:57:13;15.40;;;8.82;;
30892;SDS011;17595;50.884;4.346;2023-03-01T07:59:39;11.27;;;8.45;;
30892;SDS011;17595;50.884;4.346;2023-03-01T08:02:05;12.32;;;8.60;;
30892;SDS011;17595;50.884;4.346;2023-03-01T08:04:31;11.10;;;8.48;;
30892;SDS011;17595;50.884;4.346;2023-03-01T08:06:57;12.98;;;8.73;;
30892;SDS011;17595;50.884;4.346;2023-03-01T08:09:23;13.13;;;9.25;;
30892;SDS011;17595;50.884;4.346;2023-03-01T08:11:49;11.98;;;8.57;;
30892;SDS011;17595;50.884;4.346;2023-03-01T08:14:15;16.40;;;8.85;;
30892;SDS011;17595;50.884;4.346;2023-03-01T08:16:40;12.07;;;9.50;;
30892;SDS011;17595;50.884;4.346;2023-03-01T08:19:07;15.77;;;9.18;;
30892;SDS011;17595;50.884;4.346;2023-03-01T08:21:34;13.00;;;9.68;;
30892;SDS011;17595;50.884;4.346;2023-03-01T08:24:00;15.95;;;9.70;;
30892;SDS011;17595;50.884;4.346;2023-03-01T08:26:26;15.38;;;9.10;;
30892;SDS011;17595;50.884;4.346;2023-03-01T08:28:52;12.88;;;9.18;;
30892;SDS011;17595;50.884;4.346;2023-03-01T08:33:46;12.18;;;8.77;;
30892;SDS011;17595;50.884;4.346;2023-03-01T08:36:19;15.68;;;8.23;;
30892;SDS011;17595;50.884;4.346;2023-03-01T08:39:05;13.18;;;9.18;;
30892;SDS011;17595;50.884;4.346;2023-03-01T08:41:32;15.27;;;9.65;;
30892;SDS011;17595;50.884;4.346;2023-03-01T08:43:58;17.98;;;9.65;;
30892;SDS011;17595;50.884;4.346;2023-03-01T08:46:25;13.38;;;9.30;;
30892;SDS011;17595;50.884;4.346;2023-03-01T08:48:55;17.10;;;10.02;;
30892;SDS011;17595;50.884;4.346;2023-03-01T08:51:21;15.77;;;9.60;;
30892;SDS011;17595;50.884;4.346;2023-03-01T08:53:47;20.42;;;10.20;;
30892;SDS011;17595;50.884;4.346;2023-03-01T08:56:14;13.63;;;9.90;;
30892;SDS011;17595;50.884;4.346;2023-03-01T08:58:43;11.70;;;9.25;;
30892;SDS011;17595;50.884;4.346;2023-03-01T09:01:10;15.10;;;9.50;;
30892;SDS011;17595;50.884;4.346;2023-03-01T09:03:37;16.55;;;9.77;;
30892;SDS011;17595;50.884;4.346;2023-03-01T09:06:04;14.43;;;9.13;;
30892;SDS011;17595;50.884;4.346;2023-03-01T09:08:31;14.25;;;9.05;;
30892;SDS011;17595;50.884;4.346;2023-03-01T09:11:01;12.60;;;8.68;;
30892;SDS011;17595;50.884;4.346;2023-03-01T09:13:28;13.30;;;8.85;;
30892;SDS011;17595;50.884;4.346;2023-03-01T09:15:56;11.70;;;9.20;;
30892;SDS011;17595;50.884;4.346;2023-03-01T09:18:22;14.60;;;9.02;;
30892;SDS011;17595;50.884;4.346;2023-03-01T09:20:48;16.23;;;9.43;;
30892;SDS011;17595;50.884;4.346;2023-03-01T09:23:13;13.75;;;9.65;;
30892;SDS011;17595;50.884;4.346;2023-03-01T09:25:39;13.50;;;9.82;;
30892;SDS011;17595;50.884;4.346;2023-03-01T09:28:04;14.25;;;10.18;;
30892;SDS011;17595;50.884;4.346;2023-03-01T09:30:30;15.70;;;10.82;;
30892;SDS011;17595;50.884;4.346;2023-03-01T09:32:58;13.18;;;9.98;;
30892;SDS011;17595;50.884;4.346;2023-03-01T09:35:24;13.73;;;10.38;;
30892;SDS011;17595;50.884;4.346;2023-03-01T09:37:50;19.02;;;10.07;;
30892;SDS011;17595;50.884;4.346;2023-03-01T09:40:17;14.48;;;10.57;;
30892;SDS011;17595;50.884;4.346;2023-03-01T09:42:51;16.00;;;10.07;;
30892;SDS011;17595;50.884;4.346;2023-03-01T09:45:39;15.13;;;10.27;;
30892;SDS011;17595;50.884;4.346;2023-03-01T09:48:18;14.25;;;10.20;;
30892;SDS011;17595;50.884;4.346;2023-03-01T09:50:47;14.35;;;9.82;;
30892;SDS011;17595;50.884;4.346;2023-03-01T09:53:15;13.40;;;10.27;;
30892;SDS011;17595;50.884;4.346;2023-03-01T09:55:44;17.95;;;10.70;;
30892;SDS011;17595;50.884;4.346;2023-03-01T09:58:41;13.70;;;9.68;;
30892;SDS011;17595;50.884;4.346;2023-03-01T10:01:35;18.40;;;10.57;;
30892;SDS011;17595;50.884;4.346;2023-03-01T10:04:28;19.65;;;10.18;;
30892;SDS011;17595;50.884;4.346;2023-03-01T10:09:36;13.55;;;9.38;;
30892;SDS011;17595;50.884;4.346;2023-03-01T10:17:45;12.38;;;8.98;;
30892;SDS011;17595;50.884;4.346;2023-03-01T10:22:41;14.57;;;9.70;;
30892;SDS011;17595;50.884;4.346;2023-03-01T10:25:08;16.60;;;10.07;;
30892;SDS011;17595;50.884;4.346;2023-03-01T10:27:43;15.55;;;9.90;;
30892;SDS011;17595;50.884;4.346;2023-03-01T10:30:32;15.38;;;9.48;;
30892;SDS011;17595;50.884;4.346;2023-03-01T10:33:26;15.15;;;8.85;;
30892;SDS011;17595;50.884;4.346;2023-03-01T10:35:52;20.42;;;9.75;;
30892;SDS011;17595;50.884;4.346;2023-03-01T10:38:18;13.98;;;9.02;;
30892;SDS011;17595;50.884;4.346;2023-03-01T10:40:52;12.38;;;9.00;;
30892;SDS011;17595;50.884;4.346;2023-03-01T10:43:52;12.38;;;8.90;;
30892;SDS011;17595;50.884;4.346;2023-03-01T10:46:23;15.20;;;9.65;;
30892;SDS011;17595;50.884;4.346;2023-03-01T10:51:40;15.85;;;9.93;;
30892;SDS011;17595;50.884;4.346;2023-03-01T10:54:21;12.23;;;8.40;;
30892;SDS011;17595;50.884;4.346;2023-03-01T10:56:53;15.00;;;9.25;;
30892;SDS011;17595;50.884;4.346;2023-03-01T10:59:28;12.70;;;9.25;;
30892;SDS011;17595;50.884;4.346;2023-03-01T11:02:01;12.05;;;9.10;;
30892;SDS011;17595;50.884;4.346;2023-03-01T11:04:34;17.13;;;9.65;;
30892;SDS011;17595;50.884;4.346;2023-03-01T11:07:00;14.02;;;9.25;;
30892;SDS011;17595;50.884;4.346;2023-03-01T11:09:30;9.93;;;8.70;;
30892;SDS011;17595;50.884;4.346;2023-03-01T11:12:02;11.93;;;8.55;;
30892;SDS011;17595;50.884;4.346;2023-03-01T11:14:33;10.48;;;7.95;;
30892;SDS011;17595;50.884;4.346;2023-03-01T11:17:44;11.65;;;8.48;;
30892;SDS011;17595;50.884;4.346;2023-03-01T11:22:41;12.95;;;8.52;;
30892;SDS011;17595;50.884;4.346;2023-03-01T11:25:51;15.90;;;9.18;;
30892;SDS011;17595;50.884;4.346;2023-03-01T11:28:24;10.73;;;8.35;;
30892;SDS011;17595;50.884;4.346;2023-03-01T11:33:46;12.18;;;9.30;;
30892;SDS011;17595;50.884;4.346;2023-03-01T11:36:16;15.45;;;9.57;;
30892;SDS011;17595;50.884;4.346;2023-03-01T11:41:41;15.30;;;9.10;;
30892;SDS011;17595;50.884;4.346;2023-03-01T11:49:44;12.15;;;8.65;;
30892;SDS011;17595;50.884;4.346;2023-03-01T11:55:12;10.75;;;8.40;;
30892;SDS011;17595;50.884;4.346;2023-03-01T12:08:40;11.65;;;7.80;;
30892;SDS011;17595;50.884;4.346;2023-03-01T12:24:51;12.15;;;8.52;;
30892;SDS011;17595;50.884;4.346;2023-03-01T12:35:51;10.82;;;7.60;;
30892;SDS011;17595;50.884;4.346;2023-03-01T12:38:31;12.90;;;7.78;;
30892;SDS011;17595;50.884;4.346;2023-03-01T12:41:28;13.85;;;8.10;;
30892;SDS011;17595;50.884;4.346;2023-03-01T12:52:17;11.48;;;7.80;;
30892;SDS011;17595;50.884;4.346;2023-03-01T12:54:55;11.18;;;7.72;;
30892;SDS011;17595;50.884;4.346;2023-03-01T12:57:27;10.80;;;7.78;;
30892;SDS011;17595;50.884;4.346;2023-03-01T13:02:37;13.55;;;7.43;;
30892;SDS011;17595;50.884;4.346;2023-03-01T13:05:33;10.05;;;7.50;;
30892;SDS011;17595;50.884;4.346;2023-03-01T13:10:36;11.60;;;7.90;;
30892;SDS011;17595;50.884;4.346;2023-03-01T13:13:22;10.02;;;7.55;;
30892;SDS011;17595;50.884;4.346;2023-03-01T13:15:49;9.98;;;7.50;;
30892;SDS011;17595;50.884;4.346;2023-03-01T13:23:23;9.77;;;8.05;;
30892;SDS011;17595;50.884;4.346;2023-03-01T13:31:02;11.80;;;7.53;;
30892;SDS011;17595;50.884;4.346;2023-03-01T13:36:05;11.55;;;7.80;;
30892;SDS011;17595;50.884;4.346;2023-03-01T13:41:16;12.60;;;8.40;;
30892;SDS011;17595;50.884;4.346;2023-03-01T13:44:02;11.77;;;7.63;;
30892;SDS011;17595;50.884;4.346;2023-03-01T13:46:43;13.60;;;8.48;;
30892;SDS011;17595;50.884;4.346;2023-03-01T13:49:11;9.65;;;7.70;;
30892;SDS011;17595;50.884;4.346;2023-03-01T13:51:41;10.20;;;7.68;;
30892;SDS011;17595;50.884;4.346;2023-03-01T13:54:11;10.55;;;7.25;;
30892;SDS011;17595;50.884;4.346;2023-03-01T13:56:38;11.85;;;8.27;;
30892;SDS011;17595;50.884;4.346;2023-03-01T13:59:26;11.45;;;8.70;;
30892;SDS011;17595;50.884;4.346;2023-03-01T14:02:00;11.40;;;8.55;;
30892;SDS011;17595;50.884;4.346;2023-03-01T14:04:30;12.07;;;8.15;;
30892;SDS011;17595;50.884;4.346;2023-03-01T14:09:43;11.45;;;8.30;;
30892;SDS011;17595;50.884;4.346;2023-03-01T14:12:26;14.02;;;8.65;;
30892;SDS011;17595;50.884;4.346;2023-03-01T14:15:18;11.90;;;8.80;;
30892;SDS011;17595;50.884;4.346;2023-03-01T14:20:44;15.25;;;8.95;;
30892;SDS011;17595;50.884;4.346;2023-03-01T14:23:17;13.70;;;8.45;;
30892;SDS011;17595;50.884;4.346;2023-03-01T14:25:55;11.75;;;8.68;;
30892;SDS011;17595;50.884;4.346;2023-03-01T14:28:26;10.48;;;7.93;;
30892;SDS011;17595;50.884;4.346;2023-03-01T14:30:54;14.32;;;9.23;;
30892;SDS011;17595;50.884;4.346;2023-03-01T14:33:22;11.05;;;7.97;;
30892;SDS011;17595;50.884;4.346;2023-03-01T14:36:11;14.50;;;8.40;;
30892;SDS011;17595;50.884;4.346;2023-03-01T14:38:41;11.30;;;8.38;;
30892;SDS011;17595;50.884;4.346;2023-03-01T14:41:15;12.63;;;7.93;;
30892;SDS011;17595;50.884;4.346;2023-03-01T14:43:52;11.10;;;7.75;;
30892;SDS011;17595;50.884;4.346;2023-03-01T14:46:24;13.48;;;8.38;;
30892;SDS011;17595;50.884;4.346;2023-03-01T14:48:51;11.15;;;8.48;;
30892;SDS011;17595;50.884;4.346;2023-03-01T14:53:46;10.40;;;8.18;;
30892;SDS011;17595;50.884;4.346;2023-03-01T14:56:13;11.32;;;8.48;;
30892;SDS011;17595;50.884;4.346;2023-03-01T14:58:42;11.55;;;9.02;;
30892;SDS011;17595;50.884;4.346;2023-03-01T15:01:10;13.07;;;9.20;;
30892;SDS011;17595;50.884;4.346;2023-03-01T15:03:47;11.85;;;8.65;;
30892;SDS011;17595;50.884;4.346;2023-03-01T15:06:14;11.10;;;8.00;;
30892;SDS011;17595;50.884;4.346;2023-03-01T15:08:46;11.13;;;7.63;;
30892;SDS011;17595;50.884;4.346;2023-03-01T15:11:21;10.55;;;8.18;;
30892;SDS011;17595;50.884;4.346;2023-03-01T15:13:49;12.07;;;8.38;;
30892;SDS011;17595;50.884;4.346;2023-03-01T15:16:32;12.52;;;8.68;;
30892;SDS011;17595;50.884;4.346;2023-03-01T15:18:59;12.45;;;8.63;;
30892;SDS011;17595;50.884;4.346;2023-03-01T15:21:34;11.35;;;7.78;;
30892;SDS011;17595;50.884;4.346;2023-03-01T15:24:16;11.25;;;8.55;;
30892;SDS011;17595;50.884;4.346;2023-03-01T15:26:46;11.98;;;8.43;;
30892;SDS011;17595;50.884;4.346;2023-03-01T15:29:29;11.57;;;8.43;;
30892;SDS011;17595;50.884;4.346;2023-03-01T15:32:02;9.60;;;8.10;;
30892;SDS011;17595;50.884;4.346;2023-03-01T15:34:35;12.68;;;8.63;;
30892;SDS011;17595;50.884;4.346;2023-03-01T15:37:03;12.02;;;8.55;;
30892;SDS011;17595;50.884;4.346;2023-03-01T15:42:03;14.00;;;8.35;;
30892;SDS011;17595;50.884;4.346;2023-03-01T15:44:37;12.95;;;8.93;;
30892;SDS011;17595;50.884;4.346;2023-03-01T15:49:52;11.85;;;8.50;;
30892;SDS011;17595;50.884;4.346;2023-03-01T15:52:29;9.10;;;8.20;;
30892;SDS011;17595;50.884;4.346;2023-03-01T15:55:02;12.90;;;9.23;;
30892;SDS011;17595;50.884;4.346;2023-03-01T15:57:30;12.48;;;8.63;;
30892;SDS011;17595;50.884;4.346;2023-03-01T15:59:56;10.68;;;7.78;;
30892;SDS011;17595;50.884;4.346;2023-03-01T16:02:22;12.13;;;8.82;;
30892;SDS011;17595;50.884;4.346;2023-03-01T16:04:49;13.55;;;9.25;;
30892;SDS011;17595;50.884;4.346;2023-03-01T16:07:15;12.80;;;8.50;;
30892;SDS011;17595;50.884;4.346;2023-03-01T16:09:41;12.68;;;9.05;;
30892;SDS011;17595;50.884;4.346;2023-03-01T16:12:17;15.25;;;9.27;;
30892;SDS011;17595;50.884;4.346;2023-03-01T16:14:45;14.00;;;9.00;;
30892;SDS011;17595;50.884;4.346;2023-03-01T16:17:10;11.70;;;7.53;;
30892;SDS011;17595;50.884;4.346;2023-03-01T16:19:39;13.85;;;7.40;;
30892;SDS011;17595;50.884;4.346;2023-03-01T16:22:06;9.27;;;8.27;;
30892;SDS011;17595;50.884;4.346;2023-03-01T16:24:33;12.18;;;8.35;;
30892;SDS011;17595;50.884;4.346;2023-03-01T16:27:00;9.93;;;7.53;;
30892;SDS011;17595;50.884;4.346;2023-03-01T16:29:26;13.13;;;8.02;;
30892;SDS011;17595;50.884;4.346;2023-03-01T16:31:54;11.05;;;8.38;;
30892;SDS011;17595;50.884;4.346;2023-03-01T16:34:20;9.82;;;7.68;;
30892;SDS011;17595;50.884;4.346;2023-03-01T16:36:49;10.50;;;7.93;;
30892;SDS011;17595;50.884;4.346;2023-03-01T16:39:14;14.25;;;8.27;;
30892;SDS011;17595;50.884;4.346;2023-03-01T16:41:41;10.45;;;7.50;;
30892;SDS011;17595;50.884;4.346;2023-03-01T16:44:06;12.45;;;8.77;;
30892;SDS011;17595;50.884;4.346;2023-03-01T16:46:32;8.82;;;6.93;;
30892;SDS011;17595;50.884;4.346;2023-03-01T16:48:58;11.55;;;7.88;;